Time;durP1;ratioP1;P1;durP2;ratioP2;P2;SDS_P1;SDS_P2;PMS_P1;PMS_P2;Temp;Humidity;BMP_temperature;BMP_pressure;BME280_temperature;BME280_humidity;BME280_pressure;Samples;Min_cycle;Max_cycle;Signal;HPM_P1;HPM_P2
2022/01/21 00:01:13;;;;;;;12.70;2.22;;;3.10;99.90;;;;;;4965070;28;20046;-68
2022/01/21 00:03:40;;;;;;;19.17;2.63;;;3.10;99.90;;;;;;4955947;28;20055;-69
2022/01/21 00:06:06;;;;;;;18.10;2.60;;;3.10;99.90;;;;;;4954604;28;20050;-67
2022/01/21 00:08:33;;;;;;;9.38;1.48;;;3.10;99.90;;;;;;4970629;28;20435;-68
2022/01/21 00:11:02;;;;;;;16.75;2.83;;;3.00;99.90;;;;;;4984708;28;20093;-68
2022/01/21 00:13:34;;;;;;;9.25;1.20;;;2.90;99.90;;;;;;4956518;28;20039;-66
2022/01/21 00:16:15;;;;;;;11.25;1.42;;;2.90;99.90;;;;;;4952968;28;20053;-68
2022/01/21 00:18:45;;;;;;;6.20;1.00;;;2.90;99.90;;;;;;4972625;28;20066;-66
2022/01/21 00:32:09;;;;;;;15.25;1.73;;;2.70;99.90;;;;;;4969038;28;20043;-70
2022/01/21 00:34:36;;;;;;;10.07;1.40;;;2.70;99.90;;;;;;4958179;28;20149;-69
2022/01/21 00:37:02;;;;;;;11.57;1.42;;;2.70;99.90;;;;;;4972782;28;20467;-69
2022/01/21 00:39:30;;;;;;;7.28;1.08;;;2.70;99.90;;;;;;4965962;28;20050;-69
2022/01/21 00:42:07;;;;;;;11.23;2.10;;;2.80;99.90;;;;;;4955598;28;20050;-69
2022/01/21 00:44:33;;;;;;;8.27;1.17;;;2.80;99.90;;;;;;4946269;28;20348;-69
2022/01/21 00:46:59;;;;;;;7.05;1.77;;;2.70;99.90;;;;;;4959777;28;20434;-69
2022/01/21 00:49:24;;;;;;;11.70;1.43;;;2.80;99.90;;;;;;4975020;28;20036;-70
2022/01/21 00:51:54;;;;;;;6.53;1.10;;;2.80;99.90;;;;;;4961761;28;20479;-69
2022/01/21 00:54:20;;;;;;;4.20;1.27;;;2.80;99.90;;;;;;4968546;28;20035;-69
2022/01/21 00:56:45;;;;;;;8.40;0.73;;;2.90;99.90;;;;;;4963587;28;20042;-69
2022/01/21 00:59:11;;;;;;;5.00;0.60;;;2.90;99.90;;;;;;4968917;28;21140;-66
2022/01/21 01:01:37;;;;;;;8.27;0.70;;;2.90;99.90;;;;;;4975460;28;20068;-67
2022/01/21 01:04:04;;;;;;;7.60;0.70;;;3.00;99.90;;;;;;4953918;28;20209;-67
2022/01/21 01:06:30;;;;;;;2.83;0.73;;;3.00;99.90;;;;;;4976788;28;20077;-67
2022/01/21 01:08:55;;;;;;;4.03;0.53;;;3.10;99.90;;;;;;4974231;28;20109;-70
2022/01/21 01:22:14;;;;;;;7.50;1.23;;;3.20;99.90;;;;;;4975845;28;20070;-70
2022/01/21 01:30:00;;;;;;;6.45;1.77;;;3.20;99.90;;;;;;4958073;28;20049;-69
2022/01/21 01:32:28;;;;;;;7.63;1.75;;;3.20;99.90;;;;;;4974469;28;20049;-70
2022/01/21 01:34:54;;;;;;;13.55;1.55;;;3.10;99.90;;;;;;4947455;28;20164;-70
2022/01/21 01:38:00;;;;;;;9.85;1.00;;;3.10;99.90;;;;;;4958194;28;20128;-69
2022/01/21 01:40:44;;;;;;;4.25;0.68;;;3.00;99.90;;;;;;4959079;28;20509;-69
2022/01/21 01:50:59;;;;;;;4.00;0.73;;;2.90;99.90;;;;;;4971117;28;20484;-69
2022/01/21 01:53:44;;;;;;;4.43;1.50;;;2.90;99.90;;;;;;4954558;28;20046;-69
2022/01/21 01:56:12;;;;;;;8.57;1.25;;;2.90;99.90;;;;;;4975294;28;20046;-69
2022/01/21 01:58:40;;;;;;;4.32;1.15;;;2.90;99.90;;;;;;4959342;28;20053;-69
2022/01/21 02:01:06;;;;;;;3.55;0.45;;;2.90;99.90;;;;;;4962441;28;20054;-69
2022/01/21 02:03:33;;;;;;;13.52;2.45;;;2.90;99.90;;;;;;4973620;28;20061;-69
2022/01/21 02:05:59;;;;;;;9.20;0.75;;;2.90;99.90;;;;;;4979266;28;20039;-69
2022/01/21 02:08:25;;;;;;;6.25;1.10;;;2.80;99.90;;;;;;4958487;28;20034;-69
2022/01/21 02:10:51;;;;;;;4.13;0.88;;;2.80;99.90;;;;;;4985261;28;20363;-69
2022/01/21 02:13:38;;;;;;;8.57;1.52;;;2.90;99.90;;;;;;4974166;28;20050;-69
2022/01/21 02:16:36;;;;;;;10.45;1.48;;;2.90;99.90;;;;;;4979810;28;20045;-69
2022/01/21 02:21:47;;;;;;;8.38;1.42;;;2.90;99.90;;;;;;4948867;28;20047;-69
2022/01/21 02:24:23;;;;;;;7.70;1.08;;;2.80;99.90;;;;;;4979026;28;20034;-69
2022/01/21 02:26:51;;;;;;;9.43;1.20;;;2.90;99.90;;;;;;4975536;28;20082;-68
2022/01/21 02:29:27;;;;;;;7.47;0.93;;;2.80;99.90;;;;;;4980894;28;20104;-69
2022/01/21 02:31:54;;;;;;;6.55;1.15;;;2.80;99.90;;;;;;4953784;28;20078;-69
2022/01/21 02:34:20;;;;;;;;;;;2.80;99.90;;;;;;4956947;28;20286;-69
2022/01/21 02:36:45;;;;;;;8.23;1.50;;;2.80;99.90;;;;;;4967836;28;20311;-69
2022/01/21 02:39:11;;;;;;;6.37;1.10;;;2.70;99.90;;;;;;4954755;28;20061;-69
2022/01/21 02:41:37;;;;;;;7.53;0.80;;;2.80;99.90;;;;;;4974149;28;20066;-70
2022/01/21 02:44:03;;;;;;;18.80;1.73;;;2.70;99.90;;;;;;4971219;28;20161;-69
2022/01/21 02:46:29;;;;;;;11.38;1.63;;;2.70;99.90;;;;;;4953756;28;20046;-70
2022/01/21 02:48:54;;;;;;;9.33;1.37;;;2.70;99.90;;;;;;4970580;28;20046;-69
2022/01/21 02:51:20;;;;;;;7.77;1.37;;;2.70;99.90;;;;;;4957522;28;20031;-69
2022/01/21 02:54:19;;;;;;;13.13;1.40;;;2.70;99.90;;;;;;4972627;23;20039;-80
2022/01/21 02:56:48;;;;;;;11.55;1.35;;;2.60;99.90;;;;;;4948549;28;20058;-82
2022/01/21 03:03:07;;;;;;;11.77;2.33;;;2.60;99.90;;;;;;4944426;28;20043;-81
2022/01/21 03:09:32;;;;;;;9.20;1.48;;;2.50;99.90;;;;;;4910938;29;20786;-82
2022/01/21 03:11:57;;;;;;;10.40;1.77;;;2.60;99.90;;;;;;4899964;28;20131;-81
2022/01/21 03:14:23;;;;;;;7.17;1.10;;;2.50;99.90;;;;;;4960910;28;20126;-82
2022/01/21 03:16:49;;;;;;;12.03;1.70;;;2.50;99.90;;;;;;4944255;28;20042;-82
2022/01/21 03:19:55;;;;;;;;;;;;;;;;;;;;;
2022/01/21 03:23:23;;;;;;;8.15;0.93;;;2.60;99.90;;;;;;4941633;28;20066;-81
2022/01/21 03:26:28;;;;;;;8.77;1.20;;;2.70;99.90;;;;;;4926777;28;20058;-82
2022/01/21 03:29:15;;;;;;;6.53;1.23;;;2.60;99.90;;;;;;4939508;28;20052;-82
2022/01/21 03:31:41;;;;;;;13.00;1.80;;;2.70;99.90;;;;;;4945254;28;20036;-82
2022/01/21 03:37:08;;;;;;;9.75;2.13;;;2.70;99.90;;;;;;4936625;28;20050;-81
2022/01/21 03:39:34;;;;;;;17.58;2.10;;;2.60;99.90;;;;;;4959227;28;20071;-82
2022/01/21 03:42:43;;;;;;;9.47;1.93;;;2.60;99.90;;;;;;4958250;28;20071;-82
2022/01/21 03:45:32;;;;;;;8.10;2.33;;;2.60;99.90;;;;;;4942890;28;20043;-82
2022/01/21 03:48:10;;;;;;;9.70;1.13;;;2.60;99.90;;;;;;4936250;28;20110;-83
2022/01/21 03:50:46;;;;;;;10.57;1.48;;;2.50;99.90;;;;;;4960613;28;20039;-82
2022/01/21 03:53:17;;;;;;;14.63;1.40;;;2.50;99.90;;;;;;4959710;28;20082;-82
2022/01/21 03:56:49;;;;;;;;;;;;;;;;;;;;;
2022/01/21 03:59:09;;;;;;;7.70;1.38;;;2.60;99.90;;;;;;4947365;28;20039;-81
2022/01/21 04:02:07;;;;;;;9.20;1.50;;;2.60;99.90;;;;;;4944529;28;20508;-83
2022/01/21 04:04:42;;;;;;;14.45;1.75;;;2.60;99.90;;;;;;4928905;29;20040;-82
2022/01/21 04:07:10;;;;;;;;;;;2.80;99.90;;;;;;4943037;28;20166;-82
2022/01/21 04:13:36;;;;;;;8.80;1.13;;;2.70;99.90;;;;;;4944452;28;20051;-82
2022/01/21 04:16:19;;;;;;;10.50;1.20;;;2.70;99.90;;;;;;4948236;28;20529;-82
2022/01/21 04:18:45;;;;;;;4.57;1.43;;;2.80;99.90;;;;;;4955002;28;20123;-82
2022/01/21 04:21:11;;;;;;;8.50;1.00;;;2.80;99.90;;;;;;4958363;28;20042;-82
2022/01/21 04:23:36;;;;;;;12.97;1.33;;;2.80;99.90;;;;;;4943147;28;20051;-81
2022/01/21 04:26:02;;;;;;;9.70;1.50;;;2.80;99.90;;;;;;4940299;28;20039;-82
2022/01/21 04:28:29;;;;;;;6.50;1.13;;;2.70;99.90;;;;;;4947274;28;20655;-82
2022/01/21 04:30:55;;;;;;;9.55;1.17;;;2.70;99.90;;;;;;4929566;28;20765;-82
2022/01/21 04:33:20;;;;;;;8.47;1.13;;;2.80;99.90;;;;;;4946245;28;20047;-82
2022/01/21 04:35:46;;;;;;;3.90;1.10;;;2.80;99.90;;;;;;4942203;28;20609;-82
2022/01/21 04:38:15;;;;;;;6.00;1.20;;;2.70;99.90;;;;;;4930323;28;20554;-82
2022/01/21 04:40:48;;;;;;;11.63;1.67;;;2.70;99.90;;;;;;4945092;28;20098;-82
2022/01/21 04:48:43;;;;;;;9.15;1.98;;;2.70;99.90;;;;;;4944640;28;20117;-82
2022/01/21 04:51:26;;;;;;;6.77;1.23;;;2.60;99.90;;;;;;4927892;28;20028;-82
2022/01/21 04:53:51;;;;;;;11.35;1.58;;;2.70;99.90;;;;;;4946752;28;20044;-82
2022/01/21 04:56:17;;;;;;;13.93;1.67;;;2.60;99.90;;;;;;4946112;28;20115;-82
2022/01/21 04:58:46;;;;;;;9.80;1.63;;;2.60;99.90;;;;;;4959987;28;20334;-83
2022/01/21 05:01:12;;;;;;;7.78;1.75;;;2.60;99.90;;;;;;4962204;28;20403;-82
2022/01/21 05:03:41;;;;;;;7.97;1.20;;;2.60;99.90;;;;;;4932570;28;20110;-82
2022/01/21 05:06:08;;;;;;;11.45;1.50;;;2.70;99.90;;;;;;4964537;28;20296;-82
2022/01/21 05:08:45;;;;;;;7.38;1.30;;;2.80;99.90;;;;;;4949545;28;20047;-81
2022/01/21 05:11:13;;;;;;;;;;;2.70;99.90;;;;;;4943779;28;20047;-82
2022/01/21 05:13:42;;;;;;;6.45;0.75;;;2.80;99.90;;;;;;4942774;28;20419;-82
2022/01/21 05:16:29;;;;;;;8.77;1.00;;;2.80;99.90;;;;;;4928542;28;20537;-82
2022/01/21 05:18:56;;;;;;;5.60;0.97;;;2.80;99.90;;;;;;4943042;28;20131;-82
2022/01/21 05:21:22;;;;;;;9.73;1.35;;;2.80;99.90;;;;;;4957343;28;20817;-82
2022/01/21 05:23:47;;;;;;;12.87;1.07;;;2.80;99.90;;;;;;4959601;28;20065;-82
2022/01/21 05:26:13;;;;;;;4.80;1.13;;;2.80;99.90;;;;;;4927041;28;20043;-82
2022/01/21 05:28:39;;;;;;;21.60;2.63;;;2.80;99.90;;;;;;4964177;28;20040;-82
2022/01/21 05:31:05;;;;;;;4.95;0.55;;;2.90;99.90;;;;;;4948919;28;20101;-80
2022/01/21 05:33:30;;;;;;;11.20;1.47;;;2.90;99.90;;;;;;4951117;28;20707;-82
2022/01/21 05:35:58;;;;;;;8.63;0.83;;;2.90;99.90;;;;;;4967515;28;20066;-82
2022/01/21 05:38:24;;;;;;;11.18;0.90;;;2.90;99.90;;;;;;4951856;28;20039;-83
2022/01/21 05:40:51;;;;;;;11.17;2.10;;;2.90;99.90;;;;;;4966466;28;20113;-81
2022/01/21 05:43:16;;;;;;;;;;;2.90;99.90;;;;;;4936570;29;20066;-82
2022/01/21 05:48:26;;;;;;;7.65;0.98;;;2.80;99.90;;;;;;4965572;28;20047;-82
2022/01/21 05:50:52;;;;;;;6.70;0.90;;;2.80;99.90;;;;;;4965471;28;20047;-81
2022/01/21 05:53:17;;;;;;;6.03;0.90;;;2.80;99.90;;;;;;4959225;28;20042;-82
2022/01/21 05:55:43;;;;;;;5.80;1.40;;;2.80;99.90;;;;;;4945503;28;20035;-82
2022/01/21 05:58:11;;;;;;;15.57;1.10;;;2.80;99.90;;;;;;4951831;28;20115;-81
2022/01/21 06:00:37;;;;;;;6.28;1.05;;;2.80;99.90;;;;;;4948185;28;20067;-81
2022/01/21 06:03:06;;;;;;;5.53;1.15;;;2.80;99.90;;;;;;4944159;28;20046;-82
2022/01/21 06:05:33;;;;;;;4.15;0.93;;;2.80;99.90;;;;;;4962969;28;20043;-82
2022/01/21 06:08:01;;;;;;;8.00;1.15;;;2.80;99.90;;;;;;4951034;28;20031;-82
2022/01/21 06:10:28;;;;;;;3.00;0.60;;;2.80;99.90;;;;;;4963556;28;20085;-81
2022/01/21 06:12:54;;;;;;;10.30;1.20;;;2.80;99.90;;;;;;4946962;28;20659;-81
2022/01/21 06:15:20;;;;;;;6.83;1.33;;;2.90;99.90;;;;;;4959023;28;20071;-82
2022/01/21 06:17:45;;;;;;;5.57;0.97;;;2.90;99.90;;;;;;4928645;28;20039;-80
2022/01/21 06:20:11;;;;;;;5.70;1.17;;;2.90;99.90;;;;;;4936185;28;20070;-82
2022/01/21 06:22:37;;;;;;;7.97;1.63;;;2.90;99.90;;;;;;4930903;28;20449;-82
2022/01/21 06:25:12;;;;;;;12.20;2.17;;;3.00;99.90;;;;;;4937676;28;20043;-81
2022/01/21 06:27:39;;;;;;;7.25;1.38;;;2.90;99.90;;;;;;4949084;28;20051;-82
2022/01/21 06:30:07;;;;;;;23.67;1.70;;;2.90;99.90;;;;;;4951466;28;20079;-82
2022/01/21 06:32:32;;;;;;;9.85;1.02;;;2.90;99.90;;;;;;4944140;28;20450;-81
2022/01/21 06:34:58;;;;;;;3.77;0.93;;;2.90;99.90;;;;;;4932878;28;20086;-82
2022/01/21 06:37:23;;;;;;;7.53;1.90;;;2.90;99.90;;;;;;4951804;28;20513;-82
2022/01/21 06:39:49;;;;;;;6.73;1.47;;;3.00;99.90;;;;;;4933628;28;20406;-82
2022/01/21 06:42:16;;;;;;;11.63;1.57;;;2.90;99.90;;;;;;4947370;28;20090;-81
2022/01/21 06:44:41;;;;;;;8.23;1.38;;;2.90;99.90;;;;;;4947459;28;20127;-82
2022/01/21 06:47:07;;;;;;;5.03;1.73;;;2.90;99.90;;;;;;4936856;28;20125;-82
2022/01/21 06:49:32;;;;;;;7.17;1.23;;;2.90;99.90;;;;;;4965488;28;20043;-82
2022/01/21 06:51:58;;;;;;;6.63;1.33;;;2.80;99.90;;;;;;4928794;28;20035;-82
2022/01/21 06:54:24;;;;;;;8.30;1.10;;;2.80;99.90;;;;;;4949601;28;20035;-83
2022/01/21 06:56:52;;;;;;;5.47;0.80;;;2.80;99.90;;;;;;4944750;28;20398;-81
2022/01/21 06:59:18;;;;;;;8.93;1.13;;;2.90;99.90;;;;;;4932429;29;20066;-81
2022/01/21 07:01:43;;;;;;;5.43;1.03;;;2.90;99.90;;;;;;4944241;28;20054;-80
2022/01/21 07:04:09;;;;;;;11.40;1.70;;;3.00;99.90;;;;;;4958383;28;20050;-81
2022/01/21 07:06:34;;;;;;;11.63;2.17;;;3.00;99.90;;;;;;4948405;28;20042;-82
2022/01/21 07:09:00;;;;;;;8.63;2.23;;;3.10;99.90;;;;;;4941175;28;20150;-82
2022/01/21 07:11:26;;;;;;;9.77;1.13;;;3.10;99.90;;;;;;4967542;28;20031;-82
2022/01/21 07:13:51;;;;;;;9.13;1.70;;;3.10;99.90;;;;;;4959761;28;20051;-81
2022/01/21 07:16:17;;;;;;;6.90;1.17;;;3.10;99.90;;;;;;4956058;28;20498;-82
2022/01/21 07:18:45;;;;;;;10.57;1.43;;;3.10;99.90;;;;;;4956139;28;20046;-82
2022/01/21 07:21:11;;;;;;;11.45;1.65;;;3.10;99.90;;;;;;4962083;28;20046;-83
2022/01/21 07:23:37;;;;;;;11.77;1.80;;;3.10;99.90;;;;;;4950271;28;20101;-81
2022/01/21 07:26:04;;;;;;;12.60;2.37;;;3.10;99.90;;;;;;4968004;23;20039;-67
2022/01/21 07:28:34;;;;;;;11.25;2.00;;;3.10;99.90;;;;;;4947313;28;20082;-67
2022/01/21 07:30:59;;;;;;;5.40;0.95;;;3.10;99.90;;;;;;4941462;28;20086;-67
2022/01/21 07:33:25;;;;;;;11.27;1.97;;;3.20;99.90;;;;;;4941968;28;20043;-67
2022/01/21 07:35:51;;;;;;;15.33;1.70;;;3.20;99.90;;;;;;4939881;28;21118;-68
2022/01/21 07:38:17;;;;;;;9.67;2.40;;;3.20;99.90;;;;;;4942890;28;20085;-67
2022/01/21 07:40:42;;;;;;;15.87;1.97;;;3.30;99.90;;;;;;4943556;28;20138;-67
2022/01/21 07:43:09;;;;;;;8.27;1.70;;;3.30;99.90;;;;;;4940672;28;20039;-67
2022/01/21 07:45:35;;;;;;;14.40;1.73;;;3.30;99.90;;;;;;4927012;29;20055;-67
2022/01/21 07:48:01;;;;;;;14.57;1.98;;;3.30;99.90;;;;;;4940540;28;20043;-67
2022/01/21 07:50:26;;;;;;;11.73;1.77;;;3.20;99.90;;;;;;4943372;28;20036;-67
2022/01/21 07:52:52;;;;;;;17.67;2.60;;;3.20;99.90;;;;;;4942051;28;20035;-67
2022/01/21 07:55:17;;;;;;;14.30;2.80;;;3.20;99.90;;;;;;4939321;28;20504;-67
2022/01/21 07:57:43;;;;;;;16.23;2.43;;;3.10;99.90;;;;;;4942900;28;20045;-68
2022/01/21 08:00:11;;;;;;;16.37;2.47;;;3.10;99.90;;;;;;4945796;28;20062;-68
2022/01/21 08:02:37;;;;;;;11.82;1.80;;;3.10;99.90;;;;;;4934404;28;20135;-68
2022/01/21 08:05:04;;;;;;;10.60;2.47;;;3.10;99.90;;;;;;4933938;28;20118;-67
2022/01/21 08:07:30;;;;;;;10.90;2.50;;;3.10;99.90;;;;;;4926340;28;20066;-67
2022/01/21 08:09:56;;;;;;;16.10;2.43;;;3.00;99.90;;;;;;4942313;28;20089;-67
2022/01/21 08:12:21;;;;;;;9.67;2.07;;;3.00;99.90;;;;;;4957876;28;20519;-68
2022/01/21 08:14:47;;;;;;;16.97;2.13;;;3.00;99.90;;;;;;4938350;28;20510;-68
2022/01/21 08:17:13;;;;;;;14.37;1.80;;;3.00;99.90;;;;;;4930616;28;20601;-67
2022/01/21 08:19:39;;;;;;;12.93;1.83;;;3.10;99.90;;;;;;4942474;28;20043;-67
2022/01/21 08:22:05;;;;;;;9.20;1.77;;;3.10;99.90;;;;;;4937401;28;20408;-67
2022/01/21 08:24:31;;;;;;;14.32;1.85;;;3.10;99.90;;;;;;4937926;28;20477;-67
2022/01/21 08:26:56;;;;;;;10.13;2.83;;;3.10;99.90;;;;;;4939055;28;20126;-67
2022/01/21 08:29:22;;;;;;;8.60;2.20;;;3.20;99.90;;;;;;4946748;28;20161;-67
2022/01/21 08:31:48;;;;;;;11.20;2.07;;;3.30;99.90;;;;;;4939550;28;20035;-69
2022/01/21 08:34:14;;;;;;;4.90;1.90;;;3.40;99.90;;;;;;4941440;28;20130;-69
2022/01/21 08:36:40;;;;;;;13.65;1.60;;;3.40;99.90;;;;;;4942080;28;20884;-68
2022/01/21 08:39:06;;;;;;;8.70;1.93;;;3.50;99.90;;;;;;4938639;28;20564;-68
2022/01/21 08:41:32;;;;;;;12.82;1.55;;;3.60;99.90;;;;;;4946216;28;20663;-69
2022/01/21 08:43:58;;;;;;;15.30;2.80;;;3.60;99.90;;;;;;4939870;28;20047;-69
2022/01/21 08:46:24;;;;;;;9.20;1.58;;;3.70;99.90;;;;;;4944796;28;20349;-68
2022/01/21 08:48:50;;;;;;;7.17;1.50;;;3.70;99.90;;;;;;4944206;28;20043;-68
2022/01/21 08:51:23;;;;;;;7.87;2.07;;;3.80;99.90;;;;;;4940039;28;20431;-68
2022/01/21 08:53:48;;;;;;;9.65;2.25;;;3.80;99.90;;;;;;4940328;28;20519;-69
2022/01/21 08:56:16;;;;;;;19.87;2.87;;;3.90;99.90;;;;;;5015966;23;20047;-70
2022/01/21 08:58:43;;;;;;;12.00;2.15;;;3.90;99.90;;;;;;4935192;28;20035;-69
2022/01/21 09:01:12;;;;;;;9.23;1.98;;;4.00;99.90;;;;;;4965559;28;20053;-69
2022/01/21 09:03:39;;;;;;;12.27;2.00;;;4.00;99.90;;;;;;4954857;28;20036;-69
2022/01/21 09:06:04;;;;;;;23.85;3.60;;;4.00;99.90;;;;;;4971375;28;20138;-69
2022/01/21 09:08:30;;;;;;;10.25;2.47;;;4.00;99.90;;;;;;4955462;28;20553;-69
2022/01/21 09:10:58;;;;;;;12.67;2.00;;;4.00;99.90;;;;;;4958550;28;20411;-70
2022/01/21 09:13:27;;;;;;;17.38;2.60;;;4.10;99.90;;;;;;4941793;28;20085;-69
2022/01/21 09:15:58;;;;;;;14.07;2.65;;;4.10;99.90;;;;;;4954138;28;20039;-68
2022/01/21 09:18:25;;;;;;;21.85;2.90;;;4.10;99.90;;;;;;4961344;28;20035;-67
2022/01/21 09:20:51;;;;;;;10.88;2.40;;;4.20;99.90;;;;;;4939365;28;20267;-66
2022/01/21 09:23:17;;;;;;;13.50;2.83;;;4.20;99.90;;;;;;4939631;28;20645;-66
2022/01/21 09:25:42;;;;;;;14.70;2.10;;;4.20;99.90;;;;;;4958111;28;20126;-67
2022/01/21 09:28:08;;;;;;;17.50;3.43;;;4.30;99.90;;;;;;4943060;28;20061;-68
2022/01/21 09:30:34;;;;;;;18.83;3.28;;;4.30;99.90;;;;;;4937094;28;20054;-67
2022/01/21 09:33:00;;;;;;;14.23;3.27;;;4.40;99.90;;;;;;4954868;28;20042;-67
2022/01/21 09:35:25;;;;;;;18.30;3.45;;;4.50;99.90;;;;;;4957972;28;20031;-68
2022/01/21 09:37:51;;;;;;;18.43;3.33;;;4.50;99.90;;;;;;4940580;28;20488;-68
2022/01/21 09:40:17;;;;;;;13.80;2.73;;;4.50;99.90;;;;;;4941249;28;20051;-68
2022/01/21 09:42:45;;;;;;;19.83;3.37;;;4.60;99.90;;;;;;4961896;28;20034;-67
2022/01/21 09:45:14;;;;;;;8.77;2.50;;;4.60;99.90;;;;;;4949559;28;20055;-69
2022/01/21 09:47:48;;;;;;;20.13;3.60;;;4.60;99.90;;;;;;4933377;28;20527;-69
2022/01/21 09:50:17;;;;;;;12.98;3.20;;;4.70;99.90;;;;;;4957425;28;20126;-68
2022/01/21 09:52:52;;;;;;;20.92;4.63;;;4.70;99.90;;;;;;4957008;28;20082;-69
2022/01/21 09:55:22;;;;;;;18.15;2.55;;;4.80;99.90;;;;;;4934999;28;20083;-69
2022/01/21 09:57:50;;;;;;;15.75;3.67;;;4.90;99.90;;;;;;4959872;28;20043;-69
2022/01/21 10:00:18;;;;;;;15.10;3.05;;;5.00;99.90;;;;;;4943160;28;20050;-69
2022/01/21 10:02:45;;;;;;;17.05;3.33;;;5.00;99.90;;;;;;4939135;28;20114;-69
2022/01/21 10:05:11;;;;;;;12.50;2.55;;;5.10;99.90;;;;;;4959461;28;20507;-69
2022/01/21 10:07:40;;;;;;;19.50;2.60;;;5.10;99.90;;;;;;4959240;28;20431;-69
2022/01/21 10:10:08;;;;;;;11.15;2.70;;;5.20;99.90;;;;;;4953929;28;20409;-69
2022/01/21 10:12:36;;;;;;;19.83;1.80;;;5.30;99.90;;;;;;4952704;28;20315;-69
2022/01/21 10:15:03;;;;;;;15.85;2.45;;;5.30;99.90;;;;;;4940090;28;20260;-69
2022/01/21 10:17:29;;;;;;;7.53;1.58;;;5.40;99.90;;;;;;4957186;28;20039;-69
2022/01/21 10:20:14;;;;;;;16.00;2.00;;;5.50;99.90;;;;;;4952761;28;20026;-68
2022/01/21 10:23:00;;;;;;;11.77;2.17;;;5.60;99.90;;;;;;4952237;28;20078;-69
2022/01/21 10:25:27;;;;;;;11.73;1.92;;;5.60;99.90;;;;;;4940759;29;20039;-70
2022/01/21 10:28:06;;;;;;;11.32;2.45;;;5.70;99.90;;;;;;4939194;28;20137;-70
2022/01/21 10:30:32;;;;;;;9.32;1.50;;;5.80;99.90;;;;;;4956417;29;20449;-69
2022/01/21 10:32:58;;;;;;;10.27;1.50;;;5.90;99.90;;;;;;4955763;28;20484;-69
2022/01/21 10:35:26;;;;;;;8.70;1.20;;;6.00;99.90;;;;;;4943677;28;20424;-70
2022/01/21 10:37:57;;;;;;;13.27;2.58;;;6.00;99.90;;;;;;4957726;28;20043;-69
2022/01/21 10:40:22;;;;;;;13.85;2.08;;;6.10;99.90;;;;;;4956767;28;20090;-69
2022/01/21 10:42:49;;;;;;;12.60;1.60;;;6.20;99.90;;;;;;4955802;28;20031;-70
2022/01/21 10:45:15;;;;;;;6.30;1.67;;;6.20;99.90;;;;;;4939487;29;20039;-68
2022/01/21 10:47:46;;;;;;;;;;;6.30;99.90;;;;;;4941283;28;20047;-68
2022/01/21 10:50:16;;;;;;;12.38;2.53;;;6.30;99.90;;;;;;4936242;29;19930;-74
2022/01/21 10:52:49;;;;;;;9.70;1.45;;;6.40;99.90;;;;;;4952387;28;20041;-70
2022/01/21 10:55:32;;;;;;;17.05;1.38;;;6.40;99.90;;;;;;4938721;28;20162;-69
2022/01/21 10:58:18;;;;;;;16.15;2.03;;;6.50;99.90;;;;;;4959009;28;20528;-70
2022/01/21 11:01:02;;;;;;;6.15;2.45;;;6.50;99.90;;;;;;4935426;28;20054;-70
2022/01/21 11:03:32;;;;;;;9.23;2.22;;;6.60;99.90;;;;;;4939440;28;20138;-70
2022/01/21 11:06:16;;;;;;;12.80;1.80;;;6.60;99.90;;;;;;4915374;28;20385;-69
2022/01/21 11:08:42;;;;;;;9.55;1.65;;;6.60;99.90;;;;;;4953725;28;20094;-68
2022/01/21 11:11:08;;;;;;;11.07;1.50;;;6.60;99.90;;;;;;4950603;28;20040;-69
2022/01/21 11:13:36;;;;;;;7.80;1.55;;;6.70;99.90;;;;;;4956685;28;20039;-69
2022/01/21 11:16:05;;;;;;;10.00;1.40;;;6.70;99.90;;;;;;4936001;28;20053;-69
2022/01/21 11:18:31;;;;;;;15.57;1.55;;;6.80;99.90;;;;;;4956101;28;20034;-69
2022/01/21 11:21:10;;;;;;;13.55;1.90;;;6.80;99.90;;;;;;4956269;28;20034;-69
2022/01/21 11:23:37;;;;;;;10.18;1.92;;;6.80;99.90;;;;;;4936541;28;20042;-69
2022/01/21 11:26:08;;;;;;;14.68;2.35;;;6.80;99.90;;;;;;4959428;28;20122;-69
2022/01/21 11:28:49;;;;;;;8.38;2.22;;;6.90;99.90;;;;;;4959256;28;20791;-70
2022/01/21 11:31:17;;;;;;;8.75;1.17;;;7.00;99.90;;;;;;4956929;28;20106;-70
2022/01/21 11:33:43;;;;;;;5.95;1.35;;;7.00;99.90;;;;;;4951465;28;20042;-70
2022/01/21 11:36:08;;;;;;;10.90;1.20;;;7.10;99.90;;;;;;4956195;28;20488;-71
2022/01/21 11:38:38;;;;;;;9.70;1.37;;;7.10;99.90;;;;;;4956305;28;20043;-68
2022/01/21 11:41:06;;;;;;;10.50;1.40;;;7.10;99.90;;;;;;4956010;28;20109;-69
2022/01/21 11:43:33;;;;;;;8.52;1.15;;;7.10;99.90;;;;;;4943619;28;20066;-69
2022/01/21 11:51:22;;;;;;;5.68;1.17;;;7.10;99.90;;;;;;4953513;28;20375;-68
2022/01/21 11:53:49;;;;;;;18.80;1.98;;;7.20;99.90;;;;;;4955717;28;20047;-70
2022/01/21 11:56:46;;;;;;;10.00;1.45;;;7.20;99.90;;;;;;4958856;28;20050;-69
2022/01/21 12:01:58;;;;;;;12.02;1.20;;;7.10;99.90;;;;;;4937308;28;20063;-69
2022/01/21 12:04:29;;;;;;;13.48;2.30;;;7.10;99.90;;;;;;4959760;28;20035;-69
2022/01/21 12:06:59;;;;;;;7.63;2.03;;;7.10;99.90;;;;;;4935777;28;20110;-69
2022/01/21 12:09:56;;;;;;;14.90;1.80;;;7.10;99.90;;;;;;4934924;29;20408;-69
2022/01/21 12:12:54;;;;;;;13.07;1.50;;;7.10;99.90;;;;;;4958422;28;20130;-69
2022/01/21 12:15:30;;;;;;;13.60;2.58;;;7.00;99.90;;;;;;4952056;28;20276;-69
2022/01/21 12:18:57;;;;;;;11.07;1.83;;;7.00;99.90;;;;;;4943442;28;20527;-69
2022/01/21 12:21:03;;;;;;;12.90;2.25;;;7.10;99.90;;;;;;4928627;28;20051;-69
2022/01/21 12:23:30;;;;;;;17.08;4.47;;;7.20;99.90;;;;;;4951162;28;20222;-71
2022/01/21 12:26:11;;;;;;;;;;;7.20;99.90;;;;;;4939482;28;20404;-69
2022/01/21 12:28:37;;;;;;;14.65;2.75;;;7.20;99.90;;;;;;4956221;28;20041;-69
2022/01/21 12:31:04;;;;;;;13.10;1.95;;;7.20;99.90;;;;;;4938044;28;20280;-69
2022/01/21 12:33:52;;;;;;;14.82;2.47;;;7.30;99.90;;;;;;4958352;28;20038;-68
2022/01/21 12:36:19;;;;;;;8.95;2.25;;;7.20;99.90;;;;;;4952644;28;20078;-70
2022/01/21 12:41:16;;;;;;;11.60;1.80;;;7.20;99.90;;;;;;4941118;28;20558;-68
2022/01/21 12:43:46;;;;;;;12.05;2.15;;;7.30;99.90;;;;;;4957881;28;20043;-69
2022/01/21 12:46:27;;;;;;;11.38;1.85;;;7.20;99.90;;;;;;4942385;28;20106;-70
2022/01/21 12:48:54;;;;;;;9.90;1.75;;;7.20;99.90;;;;;;4939035;28;20373;-69
2022/01/21 12:51:33;;;;;;;;;;;7.20;99.90;;;;;;4939741;28;20241;-69
2022/01/21 12:56:51;;;;;;;11.48;1.27;;;7.20;99.90;;;;;;4934894;28;20077;-66
2022/01/21 12:59:23;;;;;;;9.90;1.98;;;7.20;99.90;;;;;;4951812;28;20420;-69
2022/01/21 13:01:50;;;;;;;7.82;2.00;;;7.20;99.90;;;;;;4950481;28;20078;-67
2022/01/21 13:04:53;;;;;;;11.48;1.80;;;7.20;99.90;;;;;;4953252;28;20039;-67
2022/01/21 13:07:53;;;;;;;13.63;2.63;;;7.20;99.90;;;;;;4947959;28;20133;-68
2022/01/21 13:10:29;;;;;;;9.27;2.00;;;7.20;99.90;;;;;;4954465;28;20404;-67
2022/01/21 13:15:56;;;;;;;14.82;1.70;;;7.20;99.90;;;;;;4941506;28;20050;-68
2022/01/21 13:18:25;;;;;;;13.07;2.03;;;7.10;99.90;;;;;;4956637;28;20449;-67
2022/01/21 13:20:55;;;;;;;13.95;2.55;;;7.10;99.90;;;;;;4955103;28;20042;-67
2022/01/21 13:23:43;;;;;;;11.00;2.55;;;7.10;99.90;;;;;;4958963;28;20039;-67
2022/01/21 13:26:14;;;;;;;18.40;2.08;;;7.10;99.90;;;;;;4948108;28;20415;-66
2022/01/21 13:29:12;;;;;;;10.32;1.77;;;7.20;99.90;;;;;;4956146;28;20035;-67
2022/01/21 13:31:46;;;;;;;13.07;2.10;;;7.10;99.90;;;;;;4951412;28;20134;-67
2022/01/21 13:34:15;;;;;;;10.73;1.98;;;7.20;99.90;;;;;;4936280;28;20349;-67
2022/01/21 13:36:43;;;;;;;15.57;2.13;;;7.20;99.90;;;;;;4946942;28;20416;-67
2022/01/21 13:39:17;;;;;;;16.95;2.22;;;7.20;99.90;;;;;;4923735;28;20285;-67
2022/01/21 13:42:18;;;;;;;15.35;1.83;;;7.10;99.90;;;;;;4937264;29;20043;-68
2022/01/21 13:44:46;;;;;;;10.40;2.30;;;7.20;99.90;;;;;;4949917;28;20426;-68
2022/01/21 13:47:26;;;;;;;15.13;3.55;;;7.10;99.90;;;;;;4953204;28;20047;-68
2022/01/21 13:49:52;;;;;;;19.40;2.17;;;7.10;99.90;;;;;;4958434;28;20123;-67
2022/01/21 13:52:18;;;;;;;7.00;1.67;;;7.10;99.90;;;;;;4960868;28;20062;-67
2022/01/21 13:54:47;;;;;;;14.48;2.20;;;7.20;99.90;;;;;;4953010;28;20063;-66
2022/01/21 13:57:13;;;;;;;13.15;1.70;;;7.10;99.90;;;;;;4941309;28;20054;-67
2022/01/21 13:59:44;;;;;;;14.48;2.50;;;7.10;99.90;;;;;;4952562;28;20057;-68
2022/01/21 14:02:13;;;;;;;11.02;2.08;;;7.10;99.90;;;;;;4955946;28;20558;-67
2022/01/21 14:04:40;;;;;;;11.98;1.98;;;7.10;99.90;;;;;;4949246;28;20050;-67
2022/01/21 14:07:22;;;;;;;10.93;2.15;;;7.10;99.90;;;;;;4961037;28;20054;-66
2022/01/21 14:09:47;;;;;;;16.08;3.13;;;7.10;99.90;;;;;;4958454;28;20035;-66
2022/01/21 14:12:13;;;;;;;17.33;2.93;;;7.10;99.90;;;;;;4952457;28;20062;-67
2022/01/21 14:14:40;;;;;;;18.07;3.13;;;7.10;99.90;;;;;;4956487;28;20130;-68
2022/01/21 14:17:06;;;;;;;12.70;1.98;;;7.10;99.90;;;;;;4938807;28;20189;-66
2022/01/21 14:19:38;;;;;;;9.32;1.70;;;7.10;99.90;;;;;;4955896;28;20035;-67
2022/01/21 14:22:09;;;;;;;22.73;2.30;;;7.10;99.90;;;;;;4955387;28;20043;-67
2022/01/21 14:24:46;;;;;;;11.77;2.13;;;7.10;99.90;;;;;;4941087;28;20377;-66
2022/01/21 14:27:23;;;;;;;10.02;1.65;;;7.10;99.90;;;;;;4960482;28;20660;-67
2022/01/21 14:30:07;;;;;;;8.55;1.85;;;7.10;99.90;;;;;;4953381;28;20130;-66